createdAt,value
2022-10-28T00:00:13.151Z,1010.1
2022-10-28T00:01:30.193Z,1010.1
2022-10-28T00:02:47.353Z,1010.1
2022-10-28T00:04:04.207Z,1010.1
2022-10-28T00:05:21.193Z,1010.1
2022-10-28T00:06:38.175Z,1010.2
2022-10-28T00:07:55.389Z,1010.1
2022-10-28T00:09:12.409Z,1010.1
2022-10-28T00:10:29.424Z,1010.1
2022-10-28T00:11:46.177Z,1010.1
2022-10-28T00:13:03.160Z,1010.1
2022-10-28T00:14:20.179Z,1010.2
2022-10-28T00:15:37.167Z,1010.1
2022-10-28T00:16:54.539Z,1010.2
2022-10-28T00:18:11.159Z,1010.1
2022-10-28T00:19:28.168Z,1010.1
2022-10-28T00:20:45.170Z,1010.1
2022-10-28T00:22:02.257Z,1010.1
2022-10-28T00:23:19.207Z,1010.1
2022-10-28T00:24:36.180Z,1010.1
2022-10-28T00:25:53.181Z,1010.1
2022-10-28T00:27:10.200Z,1010.1
2022-10-28T00:28:27.184Z,1010.1
2022-10-28T00:29:44.281Z,1010.1
2022-10-28T00:31:01.327Z,1010
2022-10-28T00:32:18.204Z,1010
2022-10-28T00:33:35.199Z,1010
2022-10-28T00:34:52.222Z,1010
2022-10-28T00:36:09.742Z,1010
2022-10-28T00:37:27.343Z,1010
2022-10-28T00:38:44.214Z,1010
2022-10-28T00:40:01.247Z,1010
2022-10-28T00:41:18.186Z,1010
2022-10-28T00:42:35.231Z,1010
2022-10-28T00:43:52.212Z,1010
2022-10-28T00:45:09.228Z,1010
2022-10-28T00:48:30.302Z,1009.9
2022-10-28T00:49:47.347Z,1009.8
2022-10-28T00:51:04.392Z,1009.8
2022-10-28T00:52:22.419Z,1009.8
2022-10-28T00:53:39.521Z,1009.8
2022-10-28T00:54:56.348Z,1009.8
2022-10-28T00:56:13.318Z,1009.8
2022-10-28T00:57:30.273Z,1009.8
2022-10-28T00:58:47.283Z,1009.8
2022-10-28T01:00:04.735Z,1009.8
2022-10-28T01:01:22.423Z,1009.8
2022-10-28T01:02:39.345Z,1009.8
2022-10-28T01:03:56.394Z,1009.8
2022-10-28T01:05:13.330Z,1009.7
2022-10-28T01:06:30.337Z,1009.7
2022-10-28T01:07:47.308Z,1009.7
2022-10-28T01:09:05.486Z,1009.7
2022-10-28T01:10:22.341Z,1009.7
2022-10-28T01:11:39.507Z,1009.7
2022-10-28T01:12:56.429Z,1009.7
2022-10-28T01:14:13.303Z,1009.7
2022-10-28T01:15:30.340Z,1009.7
2022-10-28T01:16:47.318Z,1009.7
2022-10-28T01:18:04.307Z,1009.6
2022-10-28T01:19:21.336Z,1009.6
2022-10-28T01:20:39.803Z,1009.6
2022-10-28T01:21:55.318Z,1009.6
2022-10-28T01:23:12.324Z,1009.6
2022-10-28T01:24:29.392Z,1009.6
2022-10-28T01:25:46.326Z,1009.5
2022-10-28T01:27:03.356Z,1009.5
2022-10-28T01:28:20.318Z,1009.5
2022-10-28T01:29:37.350Z,1009.5
2022-10-28T01:30:54.322Z,1009.5
2022-10-28T01:32:11.365Z,1009.4
2022-10-28T01:33:28.334Z,1009.4
2022-10-28T01:34:45.381Z,1009.4
2022-10-28T01:36:02.400Z,1009.4
2022-10-28T01:37:19.336Z,1009.4
2022-10-28T01:38:36.334Z,1009.4
2022-10-28T01:39:53.445Z,1009.4
2022-10-28T01:41:10.378Z,1009.4
2022-10-28T01:42:27.346Z,1009.5
2022-10-28T01:43:44.605Z,1009.4
2022-10-28T01:45:01.495Z,1009.4
2022-10-28T01:46:18.375Z,1009.4
2022-10-28T01:47:35.360Z,1009.4
2022-10-28T01:48:52.387Z,1009.4
2022-10-28T01:50:09.369Z,1009.4
2022-10-28T01:51:26.379Z,1009.4
2022-10-28T01:52:43.383Z,1009.3
2022-10-28T01:54:00.363Z,1009.4
2022-10-28T01:55:17.435Z,1009.3
2022-10-28T01:56:34.368Z,1009.3
2022-10-28T01:57:51.405Z,1009.2
2022-10-28T01:59:08.401Z,1009.2
2022-10-28T02:00:25.436Z,1009.2
2022-10-28T02:01:42.718Z,1009.1
2022-10-28T02:02:59.377Z,1009.2
2022-10-28T02:04:16.381Z,1009.2
2022-10-28T02:05:33.402Z,1009.2
2022-10-28T02:06:50.391Z,1009.2
2022-10-28T02:08:07.412Z,1009.2
2022-10-28T02:09:24.388Z,1009.1
2022-10-28T02:10:41.409Z,1009.2
2022-10-28T02:11:58.446Z,1009.2
2022-10-28T02:13:15.387Z,1009.2
2022-10-28T02:14:32.408Z,1009.2
2022-10-28T02:15:49.814Z,1009.3
2022-10-28T02:17:07.395Z,1009.2
2022-10-28T02:18:24.405Z,1009.2
2022-10-28T02:19:41.434Z,1009.2
2022-10-28T02:20:58.437Z,1009.2
2022-10-28T02:22:15.397Z,1009.2
2022-10-28T02:23:32.454Z,1009.1
2022-10-28T02:24:49.462Z,1009.1
2022-10-28T02:26:06.447Z,1009.1
2022-10-28T02:27:23.678Z,1009.1
2022-10-28T02:28:41.424Z,1009.2
2022-10-28T02:29:58.415Z,1009.2
2022-10-28T02:31:15.412Z,1009.2
2022-10-28T02:32:32.446Z,1009.2
2022-10-28T02:33:49.431Z,1009.2
2022-10-28T02:35:06.462Z,1009.2
2022-10-28T02:36:23.425Z,1009.2
2022-10-28T02:37:40.483Z,1009.1
2022-10-28T02:38:57.422Z,1009.1
2022-10-28T02:40:14.558Z,1009.2
2022-10-28T02:41:31.598Z,1009.2
2022-10-28T02:42:48.489Z,1009.2
2022-10-28T02:44:05.484Z,1009.2
2022-10-28T02:45:22.447Z,1009.1
2022-10-28T02:46:39.468Z,1009.2
2022-10-28T02:47:56.523Z,1009.2
2022-10-28T02:49:13.460Z,1009.2
2022-10-28T02:50:30.446Z,1009.2
2022-10-28T02:51:47.450Z,1009.2
2022-10-28T02:53:04.457Z,1009.1
2022-10-28T02:54:21.473Z,1009.1
2022-10-28T02:55:38.452Z,1009.1
2022-10-28T02:56:55.475Z,1009.1
2022-10-28T02:58:12.503Z,1009.1
2022-10-28T02:59:29.455Z,1009.1
2022-10-28T03:00:46.546Z,1009.1
2022-10-28T03:02:03.722Z,1009.1
2022-10-28T03:03:20.485Z,1009.1
2022-10-28T03:04:37.481Z,1009.1
2022-10-28T03:05:54.498Z,1009.1
2022-10-28T03:07:11.467Z,1009
2022-10-28T03:08:28.465Z,1009.1
2022-10-28T03:09:45.527Z,1009.1
2022-10-28T03:11:02.476Z,1009.1
2022-10-28T03:12:19.541Z,1009.1
2022-10-28T03:13:36.474Z,1009.1
2022-10-28T03:14:53.506Z,1009.1
2022-10-28T03:16:10.520Z,1009.1
2022-10-28T03:17:27.606Z,1009.1
2022-10-28T03:18:44.516Z,1009.1
2022-10-28T03:20:01.573Z,1009.1
2022-10-28T03:21:18.529Z,1009.1
2022-10-28T03:22:35.503Z,1009.1
2022-10-28T03:23:52.498Z,1009
2022-10-28T03:25:09.494Z,1009
2022-10-28T03:26:26.559Z,1009
2022-10-28T03:27:43.534Z,1009
2022-10-28T03:29:00.508Z,1009
2022-10-28T03:30:17.492Z,1009
2022-10-28T03:31:34.537Z,1009
2022-10-28T03:32:51.686Z,1008.9
2022-10-28T03:34:08.540Z,1008.9
2022-10-28T03:35:25.514Z,1008.9
2022-10-28T03:36:42.512Z,1008.9
2022-10-28T03:37:59.511Z,1008.9
2022-10-28T03:39:16.576Z,1008.9
2022-10-28T03:40:33.528Z,1008.9
2022-10-28T03:41:50.529Z,1008.9
2022-10-28T03:43:07.583Z,1008.9
2022-10-28T03:44:24.538Z,1008.9
2022-10-28T03:45:41.527Z,1008.9
2022-10-28T03:46:58.535Z,1008.9
2022-10-28T03:48:15.528Z,1008.9
2022-10-28T03:49:32.582Z,1008.9
2022-10-28T03:50:49.534Z,1008.9
2022-10-28T03:52:06.533Z,1008.9
2022-10-28T03:53:25.247Z,1008.9
2022-10-28T03:54:40.567Z,1008.8
2022-10-28T03:55:57.533Z,1008.8
2022-10-28T03:57:14.541Z,1008.8
2022-10-28T03:58:31.790Z,1008.8
2022-10-28T03:59:48.559Z,1008.8
2022-10-28T04:01:05.717Z,1008.8
2022-10-28T04:02:22.564Z,1008.8
2022-10-28T04:03:39.567Z,1008.8
2022-10-28T04:04:56.539Z,1008.8
2022-10-28T04:06:13.605Z,1008.8
2022-10-28T04:07:30.555Z,1008.8
2022-10-28T04:08:47.570Z,1008.8
2022-10-28T04:10:04.576Z,1008.8
2022-10-28T04:11:21.619Z,1008.8
2022-10-28T04:12:38.567Z,1008.8
2022-10-28T04:13:55.601Z,1008.8
2022-10-28T04:15:12.567Z,1008.7
2022-10-28T04:16:29.601Z,1008.7
2022-10-28T04:17:46.606Z,1008.7
2022-10-28T04:19:03.596Z,1008.8
2022-10-28T04:20:20.590Z,1008.8
2022-10-28T04:21:37.635Z,1008.8
2022-10-28T04:22:56.174Z,1008.8
2022-10-28T04:24:11.582Z,1008.7
2022-10-28T04:25:28.611Z,1008.7
2022-10-28T04:26:45.630Z,1008.7
2022-10-28T04:28:02.591Z,1008.7
2022-10-28T04:29:19.741Z,1008.8
2022-10-28T04:30:36.588Z,1008.8
2022-10-28T04:31:53.618Z,1008.8
2022-10-28T04:33:10.594Z,1008.8
2022-10-28T04:34:27.599Z,1008.8
2022-10-28T04:35:44.606Z,1008.8
2022-10-28T04:37:01.650Z,1008.8
2022-10-28T04:38:18.684Z,1008.7
2022-10-28T04:39:35.606Z,1008.7
2022-10-28T04:40:52.612Z,1008.6
2022-10-28T04:42:09.597Z,1008.6
2022-10-28T04:43:26.632Z,1008.6
2022-10-28T04:44:43.643Z,1008.6
2022-10-28T04:46:00.627Z,1008.5
2022-10-28T04:47:17.631Z,1008.5
2022-10-28T04:48:34.670Z,1008.5
2022-10-28T04:49:51.885Z,1008.5
2022-10-28T04:51:09.595Z,1008.5
2022-10-28T04:52:26.653Z,1008.5
2022-10-28T04:53:43.652Z,1008.5
2022-10-28T04:55:00.629Z,1008.5
2022-10-28T04:56:17.646Z,1008.5
2022-10-28T04:57:34.661Z,1008.5
2022-10-28T04:58:51.712Z,1008.5
2022-10-28T05:00:08.773Z,1008.5
2022-10-28T05:01:25.764Z,1008.5
2022-10-28T05:02:45.200Z,1008.5
2022-10-28T05:03:59.651Z,1008.5
2022-10-28T05:06:33.839Z,1008.5
2022-10-28T05:07:50.890Z,1008.4
2022-10-28T05:09:07.688Z,1008.5
2022-10-28T05:10:24.670Z,1008.5
2022-10-28T05:11:41.704Z,1008.5
2022-10-28T05:12:58.647Z,1008.6
2022-10-28T05:14:15.637Z,1008.6
2022-10-28T05:15:32.674Z,1008.6
2022-10-28T05:16:50.670Z,1008.6
2022-10-28T05:18:07.669Z,1008.6
2022-10-28T05:19:24.685Z,1008.6
2022-10-28T05:20:41.657Z,1008.6
2022-10-28T05:21:58.688Z,1008.5
2022-10-28T05:23:15.730Z,1008.5
2022-10-28T05:24:32.773Z,1008.5
2022-10-28T05:25:49.654Z,1008.6
2022-10-28T05:27:06.722Z,1008.5
2022-10-28T05:28:23.682Z,1008.5
2022-10-28T05:29:40.684Z,1008.5
2022-10-28T05:30:57.732Z,1008.5
2022-10-28T05:32:14.663Z,1008.4
2022-10-28T05:33:31.674Z,1008.4
2022-10-28T05:34:48.986Z,1008.4
2022-10-28T05:36:06.672Z,1008.5
2022-10-28T05:37:23.688Z,1008.5
2022-10-28T05:38:40.684Z,1008.5
2022-10-28T05:39:58.072Z,1008.5
2022-10-28T05:41:15.698Z,1008.5
2022-10-28T05:42:32.718Z,1008.5
2022-10-28T05:43:49.683Z,1008.5
2022-10-28T05:45:06.725Z,1008.5
2022-10-28T05:46:23.769Z,1008.5
2022-10-28T05:47:40.714Z,1008.5
2022-10-28T05:48:57.699Z,1008.5
2022-10-28T05:50:14.706Z,1008.5
2022-10-28T05:51:31.705Z,1008.5
2022-10-28T05:52:48.720Z,1008.6
2022-10-28T05:54:05.742Z,1008.6
2022-10-28T05:55:23.713Z,1008.5
2022-10-28T05:56:40.708Z,1008.5
2022-10-28T05:57:58.102Z,1008.4
2022-10-28T05:59:14.803Z,1008.4
2022-10-28T06:00:31.783Z,1008.4
2022-10-28T06:01:48.836Z,1008.4
2022-10-28T06:03:05.756Z,1008.4
2022-10-28T06:04:22.752Z,1008.3
2022-10-28T06:05:39.725Z,1008.2
2022-10-28T06:06:56.748Z,1008.2
2022-10-28T06:08:13.778Z,1008.2
2022-10-28T06:09:30.719Z,1008.2
2022-10-28T06:10:48.781Z,1008.1
2022-10-28T06:12:11.246Z,1008.1
2022-10-28T06:13:28.237Z,1008.1
2022-10-28T06:14:45.199Z,1008.1
2022-10-28T06:16:02.232Z,1008.1
2022-10-28T06:17:19.321Z,1008.1
2022-10-28T06:18:36.209Z,1008.1
2022-10-28T06:19:53.260Z,1008.1
2022-10-28T06:21:10.280Z,1008.1
2022-10-28T06:22:27.317Z,1008
2022-10-28T06:23:44.219Z,1008
2022-10-28T06:25:01.281Z,1008.1
2022-10-28T06:26:18.393Z,1008.1
2022-10-28T06:27:35.337Z,1008.1
2022-10-28T06:28:52.259Z,1008.1
2022-10-28T06:30:09.273Z,1008
2022-10-28T06:31:26.254Z,1008
2022-10-28T06:32:43.346Z,1007.9
2022-10-28T06:34:00.412Z,1007.9
2022-10-28T06:35:17.435Z,1007.9
2022-10-28T06:36:34.256Z,1008
2022-10-28T06:37:51.591Z,1007.9
2022-10-28T06:39:08.352Z,1007.9
2022-10-28T06:40:25.356Z,1007.9
2022-10-28T06:41:42.281Z,1007.8
2022-10-28T06:42:59.351Z,1007.9
2022-10-28T06:44:16.274Z,1007.9
2022-10-28T06:45:34.411Z,1007.9
2022-10-28T06:46:52.834Z,1008
2022-10-28T06:48:09.888Z,1008.1
2022-10-28T06:49:26.810Z,1008.1
2022-10-28T06:50:43.808Z,1008.1
2022-10-28T06:52:00.844Z,1008.1
2022-10-28T06:53:17.873Z,1008.1
2022-10-28T06:54:34.892Z,1008.1
2022-10-28T06:55:51.820Z,1008.1
2022-10-28T06:57:08.814Z,1008.1
2022-10-28T06:58:26.055Z,1008.1
2022-10-28T06:59:42.868Z,1008.3
2022-10-28T07:00:59.863Z,1008.4
2022-10-28T07:02:16.907Z,1008.3
2022-10-28T07:03:33.862Z,1008.3
2022-10-28T07:04:51.069Z,1008.2
2022-10-28T07:06:07.909Z,1008.1
2022-10-28T07:07:24.866Z,1008.2
2022-10-28T07:08:41.881Z,1008.2
2022-10-28T07:09:58.890Z,1008.1
2022-10-28T07:11:15.850Z,1008.1
2022-10-28T07:12:32.952Z,1008.3
2022-10-28T07:13:49.880Z,1008.5
2022-10-28T07:15:07.078Z,1008.6
2022-10-28T07:16:24.888Z,1008.7
2022-10-28T07:17:41.900Z,1008.7
2022-10-28T07:18:58.914Z,1008.7
2022-10-28T07:20:15.934Z,1008.7
2022-10-28T07:21:33.074Z,1008.6
2022-10-28T07:22:49.882Z,1008.6
2022-10-28T07:24:06.878Z,1008.6
2022-10-28T07:25:23.915Z,1008.6
2022-10-28T07:26:41.020Z,1008.5
2022-10-28T07:27:58.202Z,1008.5
2022-10-28T07:29:15.897Z,1008.6
2022-10-28T07:30:32.924Z,1008.6
2022-10-28T07:31:49.932Z,1008.7
2022-10-28T07:33:06.902Z,1008.7
2022-10-28T07:34:25.974Z,1008.7
2022-10-28T07:35:42.033Z,1008.7
2022-10-28T07:36:59.069Z,1008.7
2022-10-28T07:38:15.912Z,1008.7
2022-10-28T07:39:32.989Z,1008.7
2022-10-28T07:40:49.925Z,1008.7
2022-10-28T07:42:06.923Z,1008.7
2022-10-28T07:43:23.931Z,1008.7
2022-10-28T07:44:40.974Z,1008.7
2022-10-28T07:45:57.937Z,1008.7
2022-10-28T07:47:14.930Z,1008.7
2022-10-28T07:48:31.944Z,1008.8
2022-10-28T07:49:49.164Z,1008.8
2022-10-28T07:51:05.954Z,1008.8
2022-10-28T07:52:22.951Z,1008.8
2022-10-28T07:53:39.992Z,1008.8
2022-10-28T07:54:56.970Z,1008.7
2022-10-28T07:56:13.986Z,1008.8
2022-10-28T07:57:30.956Z,1008.7
2022-10-28T07:58:47.935Z,1008.7
2022-10-28T08:00:05.167Z,1008.6
2022-10-28T08:01:22.033Z,1008.5
2022-10-28T08:02:39.084Z,1008.5
2022-10-28T08:03:55.946Z,1008.5
2022-10-28T08:05:13.003Z,1008.7
2022-10-28T08:06:30.030Z,1008.7
2022-10-28T08:07:46.943Z,1008.7
2022-10-28T08:09:03.940Z,1008.6
2022-10-28T08:10:21.007Z,1008.5
2022-10-28T08:11:37.952Z,1008.5
2022-10-28T08:12:54.963Z,1008.4
2022-10-28T08:14:11.968Z,1008.4
2022-10-28T08:15:28.968Z,1008.5
2022-10-28T08:16:45.933Z,1008.4
2022-10-28T08:18:02.958Z,1008.4
2022-10-28T08:19:19.931Z,1008.5
2022-10-28T08:20:37.005Z,1008.4
2022-10-28T08:21:53.945Z,1008.3
2022-10-28T08:23:10.938Z,1008.3
2022-10-28T08:24:27.951Z,1008.3
2022-10-28T08:25:44.978Z,1008.3
2022-10-28T08:27:02.303Z,1008.3
2022-10-28T08:28:19.959Z,1008.2
2022-10-28T08:29:36.946Z,1008.3
2022-10-28T08:31:07.823Z,1008.3
2022-10-28T08:32:10.956Z,1008.3
2022-10-28T08:33:27.965Z,1008.4
2022-10-28T08:34:44.974Z,1008.5
2022-10-28T08:36:02.195Z,1008.4
2022-10-28T08:37:19.102Z,1008.3
2022-10-28T08:38:35.962Z,1008.2
2022-10-28T08:39:52.966Z,1008.2
2022-10-28T08:41:09.981Z,1008.2
2022-10-28T08:42:26.977Z,1008.3
2022-10-28T08:43:56.545Z,1008.3
2022-10-28T08:45:01.038Z,1008.3
2022-10-28T08:46:18.974Z,1008.3
2022-10-28T08:47:36.038Z,1008.3
2022-10-28T08:48:52.991Z,1008.3
2022-10-28T08:50:10.009Z,1008.3
2022-10-28T08:51:27.039Z,1008.3
2022-10-28T08:52:43.991Z,1008.3
2022-10-28T08:54:01.057Z,1008.3
2022-10-28T08:55:18.007Z,1008.3
2022-10-28T08:56:34.993Z,1008.3
2022-10-28T08:57:51.981Z,1008.4
2022-10-28T08:59:09.049Z,1008.4
2022-10-28T09:00:26.212Z,1008.4
2022-10-28T09:01:43.189Z,1008.4
2022-10-28T09:03:00.336Z,1008.4
2022-10-28T09:04:18.030Z,1008.4
2022-10-28T09:05:35.070Z,1008.4
2022-10-28T09:06:52.086Z,1008.5
2022-10-28T09:08:09.013Z,1008.4
2022-10-28T09:09:26.038Z,1008.5
2022-10-28T09:10:43.061Z,1008.5
2022-10-28T09:12:00.028Z,1008.6
2022-10-28T09:13:17.097Z,1008.6
2022-10-28T09:14:35.080Z,1008.5
2022-10-28T09:15:52.023Z,1008.5
2022-10-28T09:17:09.050Z,1008.5
2022-10-28T09:18:26.065Z,1008.6
2022-10-28T09:19:43.077Z,1008.6
2022-10-28T09:21:00.242Z,1008.6
2022-10-28T09:22:19.899Z,1008.5
2022-10-28T09:23:35.105Z,1008.6
2022-10-28T09:24:52.072Z,1008.6
2022-10-28T09:26:09.068Z,1008.7
2022-10-28T09:27:26.073Z,1008.6
2022-10-28T09:28:43.080Z,1008.6
2022-10-28T09:30:00.056Z,1008.6
2022-10-28T09:31:17.092Z,1008.6
2022-10-28T09:32:34.063Z,1008.6
2022-10-28T09:33:51.099Z,1008.6
2022-10-28T09:35:08.082Z,1008.6
2022-10-28T09:36:25.101Z,1008.6
2022-10-28T09:37:42.107Z,1008.6
2022-10-28T09:38:59.064Z,1008.6
2022-10-28T09:40:16.137Z,1008.6
2022-10-28T09:41:33.108Z,1008.6
2022-10-28T09:42:50.108Z,1008.6
2022-10-28T09:44:07.071Z,1008.6
2022-10-28T09:45:24.097Z,1008.6
2022-10-28T09:46:41.086Z,1008.6
2022-10-28T09:47:58.112Z,1008.6
2022-10-28T09:49:15.094Z,1008.6
2022-10-28T09:50:32.093Z,1008.6
2022-10-28T09:51:49.119Z,1008.6
2022-10-28T09:53:06.115Z,1008.6
2022-10-28T09:54:23.107Z,1008.6
2022-10-28T09:55:40.129Z,1008.7
2022-10-28T09:56:57.089Z,1008.7
2022-10-28T09:58:14.150Z,1008.7
2022-10-28T09:59:31.113Z,1008.6
2022-10-28T10:00:48.128Z,1008.6
2022-10-28T10:02:05.279Z,1008.6
2022-10-28T10:03:22.185Z,1008.6
2022-10-28T10:04:39.153Z,1008.6
2022-10-28T10:05:56.139Z,1008.5
2022-10-28T10:07:13.111Z,1008.5
2022-10-28T10:08:30.157Z,1008.5
2022-10-28T10:09:47.144Z,1008.5
2022-10-28T10:11:04.126Z,1008.5
2022-10-28T10:12:21.148Z,1008.5
2022-10-28T10:13:38.168Z,1008.5
2022-10-28T10:14:55.136Z,1008.5
2022-10-28T10:16:12.122Z,1008.5
2022-10-28T10:17:29.148Z,1008.6
2022-10-28T10:18:46.165Z,1008.6
2022-10-28T10:20:03.357Z,1008.6
2022-10-28T10:21:20.157Z,1008.6
2022-10-28T10:22:37.149Z,1008.6
2022-10-28T10:23:54.207Z,1008.6
2022-10-28T10:25:11.137Z,1008.5
2022-10-28T10:26:28.171Z,1008.5
2022-10-28T10:27:45.154Z,1008.5
2022-10-28T10:29:02.197Z,1008.5
2022-10-28T10:30:19.212Z,1008.5
2022-10-28T10:31:36.177Z,1008.5
2022-10-28T10:32:53.179Z,1008.5
2022-10-28T10:34:10.254Z,1008.6
2022-10-28T10:35:27.203Z,1008.6
2022-10-28T10:36:44.190Z,1008.6
2022-10-28T10:38:01.171Z,1008.6
2022-10-28T10:39:18.289Z,1008.6
2022-10-28T10:40:35.175Z,1008.5
2022-10-28T10:41:52.207Z,1008.5
2022-10-28T10:43:13.550Z,1008.5
2022-10-28T10:44:26.223Z,1008.5
2022-10-28T10:45:43.179Z,1008.4
2022-10-28T10:47:03.419Z,1008.4
2022-10-28T10:48:17.196Z,1008.4
2022-10-28T10:49:34.281Z,1008.4
2022-10-28T10:50:51.338Z,1008.3
2022-10-28T10:52:08.198Z,1008.3
2022-10-28T10:53:25.215Z,1008.3
2022-10-28T10:54:42.291Z,1008.3
2022-10-28T10:55:59.241Z,1008.3
2022-10-28T10:57:16.256Z,1008.3
2022-10-28T10:58:33.219Z,1008.3
2022-10-28T10:59:50.329Z,1008.3
2022-10-28T11:01:07.307Z,1008.3
2022-10-28T11:02:24.392Z,1008.3
2022-10-28T11:03:41.238Z,1008.3
2022-10-28T11:04:58.308Z,1008.3
2022-10-28T11:06:23.842Z,1008.3
2022-10-28T11:07:32.245Z,1008.3
2022-10-28T11:08:49.261Z,1008.1
2022-10-28T11:10:06.315Z,1008.2
2022-10-28T11:11:23.260Z,1008.3
2022-10-28T11:12:40.315Z,1008.3
2022-10-28T11:13:57.256Z,1008.3
2022-10-28T11:15:14.263Z,1008.3
2022-10-28T11:16:32.135Z,1008.3
2022-10-28T11:17:49.245Z,1008.3
2022-10-28T11:19:06.260Z,1008.3
2022-10-28T11:20:23.331Z,1008.3
2022-10-28T11:21:40.792Z,1008.3
2022-10-28T11:22:58.299Z,1008.3
2022-10-28T11:24:15.281Z,1008.3
2022-10-28T11:25:32.289Z,1008.3
2022-10-28T11:26:49.322Z,1008.3
2022-10-28T11:28:06.288Z,1008.3
2022-10-28T11:29:23.316Z,1008.2
2022-10-28T11:30:40.265Z,1008.2
2022-10-28T11:31:57.275Z,1008.2
2022-10-28T11:33:29.210Z,1008.2
2022-10-28T11:34:31.508Z,1008.2
2022-10-28T11:35:49.247Z,1008.1
2022-10-28T11:37:06.287Z,1008.1
2022-10-28T11:38:23.338Z,1008.1
2022-10-28T11:39:40.352Z,1008.1
2022-10-28T11:40:57.325Z,1008.1
2022-10-28T11:42:14.773Z,1008
2022-10-28T11:43:32.381Z,1008
2022-10-28T11:44:49.300Z,1008
2022-10-28T11:46:06.298Z,1008
2022-10-28T11:47:23.301Z,1008
2022-10-28T11:48:40.835Z,1008
2022-10-28T11:49:58.345Z,1008.1
2022-10-28T11:51:15.317Z,1008.1
2022-10-28T11:52:32.304Z,1008.1
2022-10-28T11:53:49.451Z,1008.1
2022-10-28T11:55:06.316Z,1008
2022-10-28T11:56:23.336Z,1008
2022-10-28T11:57:41.161Z,1008
2022-10-28T11:58:59.670Z,1008
2022-10-28T12:00:18.742Z,1008
2022-10-28T12:01:36.551Z,1008
2022-10-28T12:02:53.568Z,1008
2022-10-28T12:04:10.327Z,1007.9
2022-10-28T12:05:27.899Z,1007.9
2022-10-28T12:06:45.338Z,1007.9
2022-10-28T12:08:02.380Z,1007.8
2022-10-28T12:09:19.763Z,1007.8
2022-10-28T12:10:37.383Z,1007.8
2022-10-28T12:13:11.350Z,1007.8
2022-10-28T12:14:28.413Z,1007.8
2022-10-28T12:15:45.393Z,1007.8
2022-10-28T12:17:02.389Z,1007.8
2022-10-28T12:18:19.360Z,1007.8
2022-10-28T12:19:36.553Z,1007.8
2022-10-28T12:20:53.423Z,1007.8
2022-10-28T12:22:10.384Z,1007.8
2022-10-28T12:23:27.405Z,1007.9
2022-10-28T12:24:44.415Z,1007.8
2022-10-28T12:26:01.427Z,1007.8
2022-10-28T12:27:18.520Z,1007.8
2022-10-28T12:28:35.364Z,1007.8
2022-10-28T12:29:52.382Z,1007.7
2022-10-28T12:31:09.476Z,1007.7
2022-10-28T12:32:26.381Z,1007.7
2022-10-28T12:33:43.376Z,1007.7
2022-10-28T12:35:00.391Z,1007.8
2022-10-28T12:36:17.427Z,1007.7
2022-10-28T12:37:34.405Z,1007.7
2022-10-28T12:38:51.388Z,1007.7
2022-10-28T12:40:08.416Z,1007.7
2022-10-28T12:41:25.642Z,1007.7
2022-10-28T12:42:43.435Z,1007.6
2022-10-28T12:44:00.416Z,1007.6
2022-10-28T12:45:17.421Z,1007.6
2022-10-28T12:46:34.630Z,1007.6
2022-10-28T12:47:51.421Z,1007.5
2022-10-28T12:49:08.415Z,1007.5
2022-10-28T12:50:25.427Z,1007.5
2022-10-28T12:51:42.418Z,1007.5
2022-10-28T12:52:59.455Z,1007.5
2022-10-28T12:54:16.420Z,1007.5
2022-10-28T12:55:33.617Z,1007.6
2022-10-28T12:56:50.451Z,1007.5
2022-10-28T12:58:07.462Z,1007.5
2022-10-28T12:59:24.431Z,1007.5
2022-10-28T13:00:41.528Z,1007.5
2022-10-28T13:01:58.539Z,1007.4
2022-10-28T13:03:15.435Z,1007.5
2022-10-28T13:04:32.427Z,1007.5
2022-10-28T13:05:49.431Z,1007.5
2022-10-28T13:07:06.474Z,1007.5
2022-10-28T13:08:23.449Z,1007.5
2022-10-28T13:09:40.437Z,1007.4
2022-10-28T13:10:57.446Z,1007.4
2022-10-28T13:12:14.483Z,1007.4
2022-10-28T13:13:31.571Z,1007.4
2022-10-28T13:14:48.456Z,1007.4
2022-10-28T13:16:05.496Z,1007.4
2022-10-28T13:17:22.473Z,1007.4
2022-10-28T13:18:39.537Z,1007.4
2022-10-28T13:19:56.471Z,1007.4
2022-10-28T13:21:13.477Z,1007.4
2022-10-28T13:22:30.456Z,1007.4
2022-10-28T13:23:47.521Z,1007.4
2022-10-28T13:25:04.518Z,1007.4
2022-10-28T13:26:21.492Z,1007.4
2022-10-28T13:27:38.500Z,1007.4
2022-10-28T13:28:55.530Z,1007.3
2022-10-28T13:30:12.685Z,1007.3
2022-10-28T13:31:29.547Z,1007.3
2022-10-28T13:32:47.164Z,1007.3
2022-10-28T13:34:04.565Z,1007.2
2022-10-28T13:35:21.624Z,1007.2
2022-10-28T13:36:38.531Z,1007.3
2022-10-28T13:37:55.850Z,1007.2
2022-10-28T13:39:12.492Z,1007.2
2022-10-28T13:40:29.578Z,1007.2
2022-10-28T13:41:48.012Z,1007.2
2022-10-28T13:43:03.511Z,1007.2
2022-10-28T13:44:20.525Z,1007.2
2022-10-28T13:45:37.539Z,1007.1
2022-10-28T13:46:54.583Z,1007.2
2022-10-28T13:48:11.517Z,1007.1
2022-10-28T13:49:28.559Z,1007.1
2022-10-28T13:50:45.549Z,1007.1
2022-10-28T13:52:03.640Z,1007.2
2022-10-28T13:53:20.514Z,1007.2
2022-10-28T13:54:37.540Z,1007.2
2022-10-28T13:55:54.508Z,1007.2
2022-10-28T13:57:11.651Z,1007.2
2022-10-28T13:58:28.545Z,1007.2
2022-10-28T13:59:45.568Z,1007.2
2022-10-28T14:01:02.668Z,1007.2
2022-10-28T14:07:42.192Z,1007.3
2022-10-28T14:08:59.568Z,1007.3
2022-10-28T14:10:20.342Z,1007.3
2022-10-28T14:11:33.723Z,1007.3
2022-10-28T14:12:50.594Z,1007.3
2022-10-28T14:14:07.937Z,1007.4
2022-10-28T14:15:25.578Z,1007.3
2022-10-28T14:16:42.742Z,1007.4
2022-10-28T14:18:04.779Z,1007.4
2022-10-28T14:19:16.559Z,1007.4
2022-10-28T14:20:33.592Z,1007.4
2022-10-28T14:21:50.904Z,1007.4
2022-10-28T14:23:08.599Z,1007.4
2022-10-28T14:24:25.575Z,1007.4
2022-10-28T14:25:42.661Z,1007.3
2022-10-28T14:26:59.588Z,1007.3
2022-10-28T14:28:16.599Z,1007.3
2022-10-28T14:29:33.606Z,1007.3
2022-10-28T14:30:50.670Z,1007.3
2022-10-28T14:32:07.581Z,1007.3
2022-10-28T14:33:24.581Z,1007.3
2022-10-28T14:34:41.631Z,1007.3
2022-10-28T14:35:58.593Z,1007.3
2022-10-28T14:37:15.607Z,1007.3
2022-10-28T14:38:32.632Z,1007.3
2022-10-28T14:39:49.697Z,1007.3
2022-10-28T14:41:06.600Z,1007.3
2022-10-28T14:42:23.604Z,1007.3
2022-10-28T14:43:40.612Z,1007.3
2022-10-28T14:44:57.668Z,1007.2
2022-10-28T14:46:17.650Z,1007.2
2022-10-28T14:47:34.644Z,1007.2
2022-10-28T14:48:51.612Z,1007.2
2022-10-28T14:50:08.685Z,1007.2
2022-10-28T14:51:25.657Z,1007.2
2022-10-28T14:52:42.637Z,1007.1
2022-10-28T14:53:59.639Z,1007.2
2022-10-28T14:55:16.687Z,1007.1
2022-10-28T14:56:33.636Z,1007.2
2022-10-28T14:57:50.640Z,1007.1
2022-10-28T14:59:07.668Z,1007.1
2022-10-28T15:00:24.713Z,1007.1
2022-10-28T15:01:41.830Z,1007.2
2022-10-28T15:02:58.639Z,1007.2
2022-10-28T15:04:15.668Z,1007.2
2022-10-28T15:05:32.717Z,1007.2
2022-10-28T15:06:49.683Z,1007.1
2022-10-28T15:08:06.651Z,1007.1
2022-10-28T15:09:23.665Z,1007.1
2022-10-28T15:10:43.069Z,1007.2
2022-10-28T15:11:58.657Z,1007.2
2022-10-28T15:13:15.679Z,1007.1
2022-10-28T15:14:32.664Z,1007.1
2022-10-28T15:15:49.710Z,1007.1
2022-10-28T15:17:06.688Z,1007.1
2022-10-28T15:18:23.663Z,1007.1
2022-10-28T15:19:40.666Z,1007.1
2022-10-28T15:20:57.721Z,1007
2022-10-28T15:22:14.675Z,1007
2022-10-28T15:23:31.682Z,1007
2022-10-28T15:24:48.762Z,1007
2022-10-28T15:26:05.716Z,1007
2022-10-28T15:27:22.674Z,1007
2022-10-28T15:28:39.720Z,1007
2022-10-28T15:29:56.845Z,1007
2022-10-28T15:31:13.682Z,1007
2022-10-28T15:32:30.793Z,1007.1
2022-10-28T15:33:47.679Z,1007.1
2022-10-28T15:35:04.762Z,1007.1
2022-10-28T15:36:21.725Z,1007.1
2022-10-28T15:37:38.771Z,1007.1
2022-10-28T15:38:55.706Z,1007.1
2022-10-28T15:40:12.719Z,1007.1
2022-10-28T15:41:29.717Z,1007.1
2022-10-28T15:42:46.800Z,1007.1
2022-10-28T15:44:03.763Z,1007.1
2022-10-28T15:45:20.817Z,1007.1
2022-10-28T15:46:37.707Z,1007.1
2022-10-28T15:47:55.049Z,1007.1
2022-10-28T15:49:11.758Z,1007.1
2022-10-28T15:50:28.759Z,1007.1
2022-10-28T15:51:45.730Z,1007.2
2022-10-28T15:53:02.808Z,1007.1
2022-10-28T15:54:19.763Z,1007.1
2022-10-28T15:56:53.724Z,1007
2022-10-28T15:58:12.662Z,1007
2022-10-28T15:59:27.745Z,1007
2022-10-28T16:00:44.756Z,1007
2022-10-28T16:02:01.846Z,1007
2022-10-28T16:03:18.847Z,1007
2022-10-28T16:04:35.766Z,1007
2022-10-28T16:05:53.026Z,1007
2022-10-28T16:07:10.734Z,1007
2022-10-28T16:08:27.766Z,1007
2022-10-28T16:09:44.752Z,1007.1
2022-10-28T16:11:01.837Z,1007.1
2022-10-28T16:12:18.747Z,1007.2
2022-10-28T16:13:35.795Z,1007.2
2022-10-28T16:14:52.761Z,1007.1
2022-10-28T16:16:09.828Z,1007.1
2022-10-28T16:17:27.347Z,1007.1